sim
Sign-in with your pilot id or email,
or register
Callsign
Passwort

Schedule Details

Flight Number: DLH2445
Departure: Copenhagen Airport (EKCH) at 17:30
Arrival: Munich Airport (EDDM) at 19:05
Route: Lufthansa Passenger Schedule. Enter filed route here before submitting Pirep.

Weather Information
Getting current METAR information for EKCH 240720Z AUTO 19014KT 9999 BKN130/// 18/14 Q0998 NOSIG
Getting current METAR information for EDDM 240720Z 24008KT 9999 FEW035 BKN080 15/13 Q1010 NOSIG

Schedule Frequency

Route Map